Time;durP1;ratioP1;P1;durP2;ratioP2;P2;SDS_P1;SDS_P2;PMS_P1;PMS_P2;Temp;Humidity;BMP_temperature;BMP_pressure;BME280_temperature;BME280_humidity;BME280_pressure;Samples;Min_cycle;Max_cycle;Signal;HPM_P1;HPM_P2
2021/12/06 00:00:40;;;;;;;26.85;13.32;;;;;;;1.62;89.28;100996.78;5035883;28;20028;-77
2021/12/06 00:03:10;;;;;;;29.70;15.20;;;;;;;1.61;90.18;101001.22;5042380;28;20037;-77
2021/12/06 00:05:36;;;;;;;31.38;15.80;;;;;;;1.63;89.73;100999.38;5029508;28;20033;-77
2021/12/06 00:08:02;;;;;;;26.15;13.32;;;;;;;1.65;90.32;101002.84;5034486;28;20029;-77
2021/12/06 00:10:28;;;;;;;26.58;13.90;;;;;;;1.68;90.15;101002.72;5040284;28;20032;-77
2021/12/06 00:12:54;;;;;;;28.23;13.88;;;;;;;1.74;90.25;101006.94;5041998;28;20380;-77
2021/12/06 00:15:19;;;;;;;30.98;15.48;;;;;;;1.74;90.25;101007.84;5037720;28;20036;-77
2021/12/06 00:17:44;;;;;;;28.77;16.27;;;;;;;1.77;90.30;101006.00;5038279;28;20090;-77
2021/12/06 00:20:13;;;;;;;29.63;16.70;;;;;;;1.80;90.73;101016.47;5034183;28;20046;-77
2021/12/06 00:22:38;;;;;;;31.75;14.85;;;;;;;1.82;90.59;101022.63;5038000;28;20541;-77
2021/12/06 00:25:04;;;;;;;31.17;15.77;;;;;;;1.86;90.82;101022.44;5040164;28;20132;-77
2021/12/06 00:27:30;;;;;;;28.85;14.52;;;;;;;1.89;91.27;101024.13;5044112;28;20408;-77
2021/12/06 00:29:55;;;;;;;28.77;15.85;;;;;;;1.91;90.83;101023.16;5049456;28;20013;-77
2021/12/06 00:32:22;;;;;;;30.58;14.20;;;;;;;1.94;90.88;101024.84;5033180;28;20163;-77
2021/12/06 00:34:48;;;;;;;28.15;14.57;;;;;;;1.94;91.29;101027.47;5041181;28;20040;-77
2021/12/06 00:37:23;;;;;;;27.35;13.75;;;;;;;1.96;90.93;101028.28;5045194;28;20021;-77
2021/12/06 00:39:51;;;;;;;25.90;13.60;;;;;;;2.00;91.39;101034.34;5041938;28;20063;-77
2021/12/06 00:42:18;;;;;;;27.75;15.00;;;;;;;2.04;91.06;101039.50;5048610;28;20121;-77
2021/12/06 00:44:44;;;;;;;28.17;14.85;;;;;;;2.08;91.61;101042.94;5034744;28;20045;-77
2021/12/06 00:47:09;;;;;;;29.17;14.10;;;;;;;2.09;91.49;101050.81;5032746;28;20038;-77
2021/12/06 00:49:35;;;;;;;34.42;17.35;;;;;;;2.12;91.44;101054.28;5035162;28;20342;-77
2021/12/06 00:52:00;;;;;;;29.70;15.20;;;;;;;2.14;91.44;101061.25;5042915;28;20096;-77
2021/12/06 00:54:26;;;;;;;27.17;15.30;;;;;;;2.17;91.77;101063.81;5032373;28;20465;-77
2021/12/06 00:56:52;;;;;;;30.70;16.35;;;;;;;2.18;92.15;101064.66;5039911;28;20036;-77
2021/12/06 00:59:17;;;;;;;27.02;14.05;;;;;;;2.20;91.60;101069.00;5043203;28;20361;-77
2021/12/06 01:01:42;;;;;;;27.33;15.43;;;;;;;2.22;91.95;101075.09;5045088;28;20444;-77
2021/12/06 01:04:08;;;;;;;25.08;13.43;;;;;;;2.21;91.73;101080.47;5035906;28;20488;-77
2021/12/06 01:06:33;;;;;;;25.70;13.02;;;;;;;2.23;91.97;101082.16;5031055;28;20025;-77
2021/12/06 01:08:59;;;;;;;26.15;13.63;;;;;;;2.25;91.71;101087.41;5041553;28;20546;-77
2021/12/06 01:11:24;;;;;;;25.20;12.80;;;;;;;2.26;91.83;101084.69;5043325;28;20074;-77
2021/12/06 01:13:50;;;;;;;27.65;13.55;;;;;;;2.26;91.56;101084.69;5035132;28;20056;-77
2021/12/06 01:16:16;;;;;;;26.00;14.10;;;;;;;2.27;91.45;101080.28;5045690;28;20025;-77
2021/12/06 01:18:41;;;;;;;25.63;13.18;;;;;;;2.27;91.62;101085.56;5044623;28;20342;-77
2021/12/06 01:21:18;;;;;;;27.60;14.15;;;;;;;2.27;91.96;101091.72;5041722;28;20033;-77
2021/12/06 01:23:53;;;;;;;28.33;13.88;;;;;;;2.29;91.75;101091.69;5039020;28;20053;-77
2021/12/06 01:26:36;;;;;;;26.15;14.13;;;;;;;2.31;92.30;101097.78;5032657;28;20397;-77
2021/12/06 01:39:08;;;;;;;27.58;15.05;;;;;;;2.40;92.53;101089.53;5044216;28;20033;-77
2021/12/06 01:39:36;;;;;;;31.75;14.57;;;;;;;2.43;92.29;101100.03;5045416;28;20041;-77
2021/12/06 01:42:04;;;;;;;25.85;13.35;;;;;;;2.45;92.09;101106.13;5049773;28;20207;-77
2021/12/06 01:44:34;;;;;;;26.67;14.93;;;;;;;2.47;92.20;101102.56;5031997;28;20398;-77
2021/12/06 01:47:07;;;;;;;28.77;14.88;;;;;;;2.49;92.05;101106.91;5039946;28;20520;-77
2021/12/06 01:49:37;;;;;;;31.40;15.00;;;;;;;2.49;91.72;101119.28;5043871;28;20038;-77
2021/12/06 01:52:09;;;;;;;26.35;13.75;;;;;;;2.50;92.05;101118.38;5041817;28;20028;-77
2021/12/06 01:54:34;;;;;;;28.77;16.60;;;;;;;2.52;92.20;101117.41;5049185;28;20025;-77
2021/12/06 01:56:59;;;;;;;27.13;15.18;;;;;;;2.52;91.90;101120.06;5039084;28;20398;-77
2021/12/06 01:59:26;;;;;;;27.98;15.23;;;;;;;2.56;92.04;101128.75;5041049;28;20095;-77
2021/12/06 02:01:52;;;;;;;29.38;16.13;;;;;;;2.54;92.25;101127.97;5041197;28;20025;-77
2021/12/06 02:04:17;;;;;;;26.65;14.15;;;;;;;2.55;92.36;101127.03;5031176;28;20098;-77
2021/12/06 02:06:43;;;;;;;26.17;14.45;;;;;;;2.54;91.88;101125.31;5034238;28;20171;-77
2021/12/06 02:09:11;;;;;;;27.67;14.80;;;;;;;2.54;92.27;101122.66;5035888;28;20028;-77
2021/12/06 02:11:38;;;;;;;25.95;14.00;;;;;;;2.56;92.58;101123.44;5051890;28;20461;-77
2021/12/06 02:14:20;;;;;;;26.88;16.35;;;;;;;2.53;92.18;101123.56;5034403;28;20037;-77
2021/12/06 02:17:03;;;;;;;27.17;14.70;;;;;;;2.55;92.04;101127.91;5030880;28;20035;-77
2021/12/06 02:19:33;;;;;;;28.08;13.82;;;;;;;2.54;92.11;101122.66;5046000;28;20385;-77
2021/12/06 02:22:02;;;;;;;26.23;14.18;;;;;;;2.60;92.29;101133.03;5036664;28;20106;-77
2021/12/06 02:24:31;;;;;;;26.58;13.77;;;;;;;2.59;92.07;101133.94;5043641;28;20055;-77
2021/12/06 02:26:56;;;;;;;28.13;15.68;;;;;;;2.62;92.29;101140.03;5038756;28;20441;-77
2021/12/06 02:29:22;;;;;;;27.25;15.60;;;;;;;2.63;91.91;101143.53;5048189;28;20029;-77
2021/12/06 02:31:47;;;;;;;27.33;15.80;;;;;;;2.63;92.46;101140.88;5036003;28;20421;-77
2021/12/06 02:34:13;;;;;;;27.63;15.55;;;;;;;2.64;92.23;101147.94;5030821;28;20383;-77
2021/12/06 02:36:39;;;;;;;28.42;15.65;;;;;;;2.64;92.27;101142.63;5036367;28;20037;-77
2021/12/06 02:39:08;;;;;;;34.97;16.17;;;;;;;2.62;92.30;101144.44;5039993;28;20461;-77
2021/12/06 02:41:34;;;;;;;30.67;15.23;;;;;;;2.61;91.99;101153.34;5033075;28;20072;-77
2021/12/06 02:43:59;;;;;;;28.23;15.65;;;;;;;2.63;92.27;101162.13;5045839;28;20039;-77
2021/12/06 02:46:25;;;;;;;29.95;15.75;;;;;;;2.61;92.56;101163.97;5032414;28;20029;-77
2021/12/06 02:48:51;;;;;;;30.25;17.20;;;;;;;2.60;92.67;101162.22;5039505;28;20029;-77
2021/12/06 02:51:18;;;;;;;27.02;15.27;;;;;;;2.60;92.36;101162.22;5034525;28;20021;-77
2021/12/06 02:53:45;;;;;;;28.92;16.27;;;;;;;2.59;93.01;101166.69;5029174;28;20047;-77
2021/12/06 02:56:30;;;;;;;26.88;15.40;;;;;;;2.61;92.53;101169.28;5038318;28;20052;-77
2021/12/06 02:58:58;;;;;;;28.30;16.35;;;;;;;2.61;92.13;101166.63;5045845;28;20032;-77
2021/12/06 03:01:29;;;;;;;29.77;16.23;;;;;;;2.60;92.48;101172.84;5046830;28;20416;-77
2021/12/06 03:03:56;;;;;;;28.30;15.55;;;;;;;2.57;92.41;101167.66;5044692;28;20033;-77
2021/12/06 03:06:24;;;;;;;28.95;17.52;;;;;;;2.59;92.60;101171.09;5044122;28;20030;-77
2021/12/06 03:09:06;;;;;;;28.23;14.88;;;;;;;2.63;92.92;101170.06;5036622;28;20034;-77
2021/12/06 03:11:38;;;;;;;28.88;15.77;;;;;;;2.60;92.74;101167.53;5031493;28;20051;-77
2021/12/06 03:14:06;;;;;;;27.33;15.00;;;;;;;2.61;92.64;101175.44;5038639;28;20075;-77
2021/12/06 03:16:31;;;;;;;27.52;14.95;;;;;;;2.60;92.47;101175.50;5047445;28;20126;-77
2021/12/06 03:18:57;;;;;;;29.77;16.63;;;;;;;2.62;92.69;101179.84;5041053;28;20108;-77
2021/12/06 03:21:24;;;;;;;30.92;17.73;;;;;;;2.64;92.70;101170.97;5035079;28;20101;-77
2021/12/06 03:23:51;;;;;;;28.77;16.23;;;;;;;2.63;92.51;101178.03;5042052;28;20165;-77
2021/12/06 03:26:17;;;;;;;30.05;16.13;;;;;;;2.62;92.27;101179.84;5031648;28;20366;-77
2021/12/06 03:28:44;;;;;;;28.52;14.48;;;;;;;2.61;92.34;101174.59;5040263;28;20025;-78
2021/12/06 03:31:11;;;;;;;26.73;13.85;;;;;;;2.62;92.65;101176.28;5040281;28;20045;-77
2021/12/06 03:33:39;;;;;;;30.98;16.80;;;;;;;2.61;92.22;101179.88;5034478;28;20475;-77
2021/12/06 03:36:06;;;;;;;32.65;16.40;;;;;;;2.59;92.62;101177.28;5037097;28;20025;-77
2021/12/06 03:38:33;;;;;;;32.50;18.63;;;;;;;2.61;92.55;101177.25;5037038;28;20111;-77
2021/12/06 03:40:59;;;;;;;30.27;17.60;;;;;;;2.60;92.82;101173.69;5037263;28;20393;-77
2021/12/06 03:43:24;;;;;;;32.03;17.85;;;;;;;2.61;92.95;101180.75;5043389;28;20029;-77
2021/12/06 03:45:50;;;;;;;29.48;15.68;;;;;;;2.61;92.92;101180.75;5037428;28;20113;-77
2021/12/06 03:48:15;;;;;;;27.05;16.42;;;;;;;2.64;92.78;101184.22;5028780;28;20021;-77
2021/12/06 03:50:41;;;;;;;28.08;15.70;;;;;;;2.64;92.86;101179.78;5043321;28;20500;-77
2021/12/06 03:53:06;;;;;;;29.98;16.65;;;;;;;2.65;92.97;101181.53;5032816;28;20333;-77
2021/12/06 03:55:31;;;;;;;28.10;14.98;;;;;;;2.66;93.13;101177.06;5028905;28;20033;-77
2021/12/06 03:57:57;;;;;;;27.52;15.32;;;;;;;2.64;92.43;101185.09;5030328;28;20037;-77
2021/12/06 04:00:22;;;;;;;30.13;16.30;;;;;;;2.64;92.58;101185.09;5055342;28;20420;-77
2021/12/06 04:02:48;;;;;;;31.90;18.27;;;;;;;2.64;92.74;101184.22;5036737;28;20130;-77
2021/12/06 04:05:14;;;;;;;29.27;17.02;;;;;;;2.62;92.51;101181.59;5033385;28;20136;-77
2021/12/06 04:07:39;;;;;;;29.70;15.90;;;;;;;2.60;92.42;101184.31;5028448;28;20589;-77
2021/12/06 04:10:06;;;;;;;30.88;16.98;;;;;;;2.59;92.68;101190.56;5027870;28;20120;-77
2021/12/06 04:12:32;;;;;;;28.65;15.93;;;;;;;2.62;92.51;101197.53;5038103;28;20108;-77
2021/12/06 04:14:58;;;;;;;30.15;17.00;;;;;;;2.62;92.98;101193.09;5049172;28;20383;-77
2021/12/06 04:17:24;;;;;;;29.88;17.13;;;;;;;2.60;92.29;101191.41;5034702;28;20511;-77
2021/12/06 04:19:50;;;;;;;29.30;15.93;;;;;;;2.58;92.45;101188.81;5032813;28;20076;-77
2021/12/06 04:22:16;;;;;;;31.90;17.63;;;;;;;2.57;92.93;101183.56;5031657;28;20211;-77
2021/12/06 04:24:42;;;;;;;31.15;17.35;;;;;;;2.58;92.89;101185.31;5037105;28;20017;-77
2021/12/06 04:27:14;;;;;;;29.73;16.50;;;;;;;2.58;92.10;101185.31;5029480;28;20021;-77
2021/12/06 04:29:45;;;;;;;27.52;15.57;;;;;;;2.55;92.21;101186.28;5049541;28;20466;-77
2021/12/06 04:32:11;;;;;;;29.42;15.38;;;;;;;2.56;92.39;101187.13;5041624;28;20067;-77
2021/12/06 04:34:36;;;;;;;28.55;16.08;;;;;;;2.57;92.51;101189.72;5039546;28;20437;-77
2021/12/06 04:37:02;;;;;;;29.95;17.13;;;;;;;2.55;92.11;101191.56;5043629;28;20017;-77
2021/12/06 04:39:28;;;;;;;32.45;17.08;;;;;;;2.50;91.37;101204.13;5044022;28;20339;-77
2021/12/06 04:41:53;;;;;;;29.38;17.10;;;;;;;2.52;91.60;101204.06;5030229;28;20029;-77
2021/12/06 04:44:19;;;;;;;30.48;16.65;;;;;;;2.48;91.20;101205.97;5045413;28;20458;-77
2021/12/06 04:46:45;;;;;;;30.45;16.42;;;;;;;2.43;91.13;101207.91;5046415;28;20120;-77
2021/12/06 04:49:10;;;;;;;32.58;18.35;;;;;;;2.38;90.17;101208.06;5033772;28;20021;-77
2021/12/06 04:51:43;;;;;;;30.73;16.75;;;;;;;2.28;90.09;101211.94;5032113;28;20130;-77
2021/12/06 04:54:11;;;;;;;30.20;16.88;;;;;;;2.21;89.69;101213.94;5047128;28;20028;-77
2021/12/06 04:56:40;;;;;;;30.95;16.02;;;;;;;2.12;89.83;101214.22;5031984;28;20039;-77
2021/12/06 04:59:34;;;;;;;26.40;14.85;;;;;;;2.02;89.34;101216.31;5043721;28;20210;-77
2021/12/06 05:02:08;;;;;;;29.10;15.38;;;;;;;1.94;89.86;101215.69;5043034;28;21218;-77
2021/12/06 05:04:38;;;;;;;27.40;13.45;;;;;;;1.83;88.64;101213.38;5032002;28;20469;-77
2021/12/06 05:07:15;;;;;;;27.20;15.10;;;;;;;1.76;89.08;101225.06;5038288;28;20041;-77
2021/12/06 05:09:42;;;;;;;29.25;13.07;;;;;;;1.68;88.85;101219.13;5033659;28;20060;-77
2021/12/06 05:12:11;;;;;;;27.40;13.38;;;;;;;1.62;88.99;101225.47;5037296;28;20039;-77
2021/12/06 05:14:39;;;;;;;27.73;14.87;;;;;;;1.53;88.12;101215.16;5035887;28;20033;-77
2021/12/06 05:17:04;;;;;;;27.13;15.90;;;;;;;1.50;88.83;101223.22;5044983;28;20025;-77
2021/12/06 05:19:29;;;;;;;27.83;13.93;;;;;;;1.48;89.46;101231.19;5034380;28;20060;-77
2021/12/06 05:21:54;;;;;;;37.03;15.35;;;;;;;1.42;88.84;101238.44;5038046;28;20068;-77
2021/12/06 05:24:20;;;;;;;29.42;15.25;;;;;;;1.37;89.10;101228.84;5039196;28;20587;-77
2021/12/06 05:26:46;;;;;;;62.20;18.67;;;;;;;1.33;89.56;101240.47;5048854;28;20032;-77
2021/12/06 05:29:14;;;;;;;87.18;20.77;;;;;;;1.31;90.42;101249.34;5042952;28;20377;-77
2021/12/06 05:31:41;;;;;;;123.57;21.65;;;;;;;1.28;91.30;101239.72;5033015;28;20033;-77
2021/12/06 05:34:14;;;;;;;116.85;23.75;;;;;;;1.30;92.00;101237.03;5042003;28;20362;-77
2021/12/06 05:36:40;;;;;;;176.65;25.25;;;;;;;1.28;92.10;101234.41;5045270;28;20397;-77
2021/12/06 05:39:06;;;;;;;197.73;27.63;;;;;;;1.28;91.97;101238.84;5036010;28;20029;-77
2021/12/06 05:41:33;;;;;;;142.60;20.25;;;;;;;1.26;92.53;101236.25;5036100;28;20182;-77
2021/12/06 05:43:59;;;;;;;133.60;23.90;;;;;;;1.33;93.01;101235.16;5039113;28;20118;-77
2021/12/06 05:46:24;;;;;;;249.40;31.10;;;;;;;1.35;93.57;101237.78;5033202;28;20104;-77
2021/12/06 05:48:50;;;;;;;302.33;32.30;;;;;;;1.39;93.95;101234.97;5041309;28;20044;-77
2021/12/06 05:51:15;;;;;;;229.25;32.90;;;;;;;1.46;94.46;101232.16;5033784;28;20100;-77
2021/12/06 05:53:41;;;;;;;262.50;33.17;;;;;;;1.48;94.54;101239.16;5030598;28;20025;-77
2021/12/06 05:56:06;;;;;;;219.82;26.52;;;;;;;1.54;94.93;101235.44;5041521;28;20032;-77
2021/12/06 05:58:34;;;;;;;310.85;34.10;;;;;;;1.52;94.16;101237.25;5043701;28;20025;-77
2021/12/06 06:01:00;;;;;;;273.55;32.47;;;;;;;1.56;94.99;101239.78;5048256;28;20047;-77
2021/12/06 06:03:25;;;;;;;237.50;29.58;;;;;;;1.55;94.44;101250.41;5050630;28;20029;-77
2021/12/06 06:05:52;;;;;;;182.60;25.17;;;;;;;1.59;94.86;101253.84;5035499;28;20365;-77
2021/12/06 06:08:17;;;;;;;175.75;26.45;;;;;;;1.62;94.97;101249.31;5037630;28;20544;-77
2021/12/06 06:10:45;;;;;;;146.80;23.52;;;;;;;1.66;95.03;101263.38;5032071;28;20105;-77
2021/12/06 06:13:11;;;;;;;172.82;26.25;;;;;;;1.66;94.95;101264.22;5038200;28;20024;-77
2021/12/06 06:15:36;;;;;;;153.68;23.77;;;;;;;1.68;94.74;101272.97;5040785;28;20450;-77
2021/12/06 06:18:02;;;;;;;187.00;26.13;;;;;;;1.68;94.69;101270.34;5041898;28;20047;-77
2021/12/06 06:20:30;;;;;;;129.07;23.02;;;;;;;1.70;94.89;101273.81;5031369;28;20492;-77
2021/12/06 06:22:56;;;;;;;152.93;26.35;;;;;;;1.73;95.74;101272.88;5036820;28;20037;-77
2021/12/06 06:25:21;;;;;;;169.93;23.30;;;;;;;1.74;95.92;101271.94;5031469;28;20036;-77
2021/12/06 06:27:47;;;;;;;141.25;22.15;;;;;;;1.75;95.93;101279.84;5035770;28;20029;-77
2021/12/06 06:30:14;;;;;;;180.95;25.33;;;;;;;1.75;96.24;101282.50;5034872;28;20496;-77
2021/12/06 06:32:40;;;;;;;144.55;22.95;;;;;;;1.78;96.21;101280.69;5038522;28;20344;-77
2021/12/06 06:35:07;;;;;;;176.40;26.67;;;;;;;1.81;96.59;101284.09;5036728;28;20094;-77
2021/12/06 06:37:32;;;;;;;189.75;26.83;;;;;;;1.85;97.15;101279.59;5032617;28;20035;-77
2021/12/06 06:39:58;;;;;;;178.63;24.70;;;;;;;1.89;96.90;101275.94;5033464;28;20086;-77
2021/12/06 06:42:24;;;;;;;117.13;25.73;;;;;;;1.90;97.10;101272.34;5041814;28;20582;-77
2021/12/06 06:44:52;;;;;;;162.77;30.65;;;;;;;1.95;97.64;101282.81;5043294;28;20428;-77
2021/12/06 06:47:18;;;;;;;177.55;27.90;;;;;;;1.95;97.19;101283.69;5043472;28;20025;-77
2021/12/06 06:49:44;;;;;;;220.35;29.48;;;;;;;1.94;97.16;101279.28;5035550;28;20047;-77
2021/12/06 06:52:10;;;;;;;159.88;26.50;;;;;;;1.92;97.15;101281.13;5038977;28;20048;-77
2021/12/06 06:54:35;;;;;;;140.77;26.60;;;;;;;1.94;97.44;101274.00;5030690;28;20025;-77
2021/12/06 06:57:00;;;;;;;191.40;30.80;;;;;;;1.92;97.46;101275.84;5029940;28;20684;-77
2021/12/06 06:59:26;;;;;;;230.70;28.95;;;;;;;1.95;97.78;101281.03;5046497;28;20028;-78
2021/12/06 07:01:52;;;;;;;256.35;32.28;;;;;;;1.95;97.80;101281.03;5038025;28;20033;-78
2021/12/06 07:04:17;;;;;;;144.65;25.02;;;;;;;1.95;97.94;101285.44;5035698;28;20033;-78
2021/12/06 07:06:44;;;;;;;136.50;25.65;;;;;;;1.92;97.80;101281.13;5055282;28;20037;-78
2021/12/06 07:09:09;;;;;;;124.28;26.55;;;;;;;1.96;97.85;101281.91;5038740;28;20101;-78
2021/12/06 07:11:35;;;;;;;130.70;26.08;;;;;;;1.95;97.94;101286.34;5042133;28;20033;-78
2021/12/06 07:14:00;;;;;;;165.95;27.45;;;;;;;2.03;98.23;101286.09;5030458;28;20462;-78
2021/12/06 07:16:27;;;;;;;124.53;26.55;;;;;;;2.03;98.27;101289.59;5033712;28;20025;-78
2021/12/06 07:18:52;;;;;;;116.57;24.52;;;;;;;2.03;98.07;101294.91;5036239;28;20127;-78
2021/12/06 07:21:18;;;;;;;106.55;26.10;;;;;;;2.03;98.27;101296.72;5040083;28;20059;-78
2021/12/06 07:23:44;;;;;;;118.47;25.10;;;;;;;2.03;98.12;101305.50;5033239;28;20540;-78
2021/12/06 07:26:12;;;;;;;127.97;25.60;;;;;;;2.04;97.95;101304.59;5038845;28;20029;-77
2021/12/06 07:28:39;;;;;;;100.57;24.25;;;;;;;2.07;98.22;101306.31;5043141;28;20025;-77
2021/12/06 07:31:06;;;;;;;80.22;25.58;;;;;;;2.07;98.22;101315.13;5050037;28;20021;-78
2021/12/06 07:33:32;;;;;;;80.32;22.95;;;;;;;2.11;98.25;101318.56;5043119;28;20468;-78
2021/12/06 07:35:58;;;;;;;77.05;24.40;;;;;;;2.11;97.57;101313.25;5035690;28;20143;-77
2021/12/06 07:38:23;;;;;;;68.78;22.17;;;;;;;2.09;97.05;101318.59;5045701;28;20021;-77
2021/12/06 07:40:50;;;;;;;88.05;22.77;;;;;;;2.09;97.23;101318.59;5044499;28;20082;-78
2021/12/06 07:43:19;;;;;;;65.03;22.23;;;;;;;2.14;97.25;101317.56;5041865;28;20111;-77
2021/12/06 07:45:45;;;;;;;57.33;22.67;;;;;;;2.15;96.91;101314.88;5041447;28;20040;-77
2021/12/06 07:48:11;;;;;;;38.88;21.88;;;;;;;2.15;97.00;101308.72;5062285;28;20415;-77
2021/12/06 07:50:36;;;;;;;53.65;21.55;;;;;;;2.16;97.16;101305.16;5063231;28;20048;-77
2021/12/06 07:53:02;;;;;;;40.25;22.75;;;;;;;2.19;97.02;101307.72;5047172;28;20388;-77
2021/12/06 07:55:31;;;;;;;39.92;24.65;;;;;;;2.20;97.11;101301.50;5047183;28;20095;-77
2021/12/06 07:57:57;;;;;;;37.58;23.80;;;;;;;2.22;96.67;101297.00;5046299;28;20025;-77
2021/12/06 08:00:24;;;;;;;39.13;24.17;;;;;;;2.26;96.43;101288.03;5063624;28;20020;-77
2021/12/06 08:02:50;;;;;;;37.55;23.92;;;;;;;2.31;97.08;101291.41;5058413;28;20033;-77
2021/12/06 08:05:31;;;;;;;48.33;27.10;;;;;;;2.36;96.67;101285.97;5049559;28;20384;-77
2021/12/06 08:07:58;;;;;;;42.22;27.20;;;;;;;2.41;96.75;101274.28;5043946;28;20025;-78
2021/12/06 08:10:24;;;;;;;56.53;29.58;;;;;;;2.42;96.37;101277.81;5053589;28;20115;-78
2021/12/06 08:12:50;;;;;;;62.63;29.88;;;;;;;2.41;95.95;101286.69;5050227;28;20169;-77
2021/12/06 08:15:16;;;;;;;51.50;30.55;;;;;;;2.45;95.95;101293.63;5045242;28;20017;-77
2021/12/06 08:17:41;;;;;;;62.35;27.20;;;;;;;2.47;96.21;101282.97;5041929;28;20032;-77
2021/12/06 08:20:08;;;;;;;45.28;28.42;;;;;;;2.49;96.04;101281.13;5044365;28;20041;-77
2021/12/06 08:22:34;;;;;;;67.38;30.63;;;;;;;2.53;96.07;101282.75;5045024;28;20035;-77
2021/12/06 08:24:59;;;;;;;45.95;27.60;;;;;;;2.56;95.86;101285.31;5045891;28;20032;-77
2021/12/06 08:27:24;;;;;;;53.75;28.27;;;;;;;2.58;95.85;101280.84;5041604;28;20548;-77
2021/12/06 08:29:50;;;;;;;46.05;28.98;;;;;;;2.58;95.79;101275.53;5055989;28;20485;-77
2021/12/06 08:32:15;;;;;;;46.63;26.60;;;;;;;2.60;95.39;101290.44;5052088;28;20378;-77
2021/12/06 08:34:41;;;;;;;45.17;27.02;;;;;;;2.61;95.16;101296.66;5047381;28;20463;-77
2021/12/06 08:37:08;;;;;;;44.38;27.55;;;;;;;2.62;95.53;101295.72;5051120;28;20573;-77
2021/12/06 08:39:34;;;;;;;44.35;27.67;;;;;;;2.62;95.22;101312.53;5049154;28;20033;-77
2021/12/06 08:41:59;;;;;;;42.90;28.58;;;;;;;2.64;95.44;101319.56;5039288;28;20456;-77
2021/12/06 08:44:25;;;;;;;50.13;28.00;;;;;;;2.62;95.52;101317.81;5046533;28;20029;-77
2021/12/06 08:46:50;;;;;;;43.13;28.58;;;;;;;2.67;95.37;101327.44;5047638;28;20365;-77
2021/12/06 08:49:15;;;;;;;53.17;28.65;;;;;;;2.69;95.36;101321.13;5048569;28;20331;-77
2021/12/06 08:51:45;;;;;;;48.00;30.25;;;;;;;2.70;95.09;101322.88;5045602;28;20045;-77
2021/12/06 08:54:12;;;;;;;43.63;28.27;;;;;;;2.72;95.28;101326.34;5047655;28;20025;-77
2021/12/06 08:56:38;;;;;;;46.95;28.50;;;;;;;2.72;95.28;101323.69;5057875;28;20037;-77
2021/12/06 08:59:06;;;;;;;50.13;27.38;;;;;;;2.74;94.79;101332.47;5057294;28;20034;-77
2021/12/06 09:01:32;;;;;;;62.58;29.05;;;;;;;2.78;94.70;101325.25;5048136;28;20033;-77
2021/12/06 09:03:57;;;;;;;46.72;28.55;;;;;;;2.75;94.64;101328.91;5047277;28;20033;-77
2021/12/06 09:06:23;;;;;;;45.55;28.38;;;;;;;2.76;95.15;101338.59;5046633;28;20029;-77
2021/12/06 09:08:48;;;;;;;43.17;27.15;;;;;;;2.75;94.69;101342.19;5064611;28;20469;-77
2021/12/06 09:11:14;;;;;;;44.58;26.95;;;;;;;2.76;94.46;101337.72;5051092;28;20036;-77
2021/12/06 09:13:41;;;;;;;45.78;28.13;;;;;;;2.75;94.90;101338.63;5048754;28;20033;-77
2021/12/06 09:16:08;;;;;;;40.78;26.80;;;;;;;2.74;94.62;101337.78;5044272;28;20028;-77
2021/12/06 09:18:37;;;;;;;39.70;26.00;;;;;;;2.74;94.82;101344.91;5043929;28;20061;-77
2021/12/06 09:21:05;;;;;;;41.47;24.48;;;;;;;2.76;94.50;101333.28;5056356;28;20033;-77
2021/12/06 09:23:31;;;;;;;45.17;25.55;;;;;;;2.75;94.15;101326.25;5053480;28;20528;-77
2021/12/06 09:25:57;;;;;;;44.42;26.80;;;;;;;2.74;94.24;101334.28;5046432;28;20025;-77
2021/12/06 09:28:23;;;;;;;41.60;25.95;;;;;;;2.77;94.73;101331.53;5047204;28;20033;-77
2021/12/06 09:30:49;;;;;;;44.90;27.92;;;;;;;2.82;94.66;101341.97;5053305;28;20093;-77
2021/12/06 09:33:16;;;;;;;40.78;25.45;;;;;;;2.80;94.59;101340.22;5048167;28;20024;-77
2021/12/06 09:35:44;;;;;;;41.13;24.92;;;;;;;2.86;94.93;101343.63;5056335;28;20052;-77
2021/12/06 09:38:14;;;;;;;47.92;27.70;;;;;;;2.85;95.03;101333.91;5052867;28;20033;-77
2021/12/06 09:40:43;;;;;;;47.67;25.98;;;;;;;2.88;94.88;101337.31;5045255;28;20044;-77
2021/12/06 09:43:11;;;;;;;60.00;28.73;;;;;;;2.87;94.85;101337.38;5047330;28;20112;-77
2021/12/06 09:45:37;;;;;;;48.22;30.20;;;;;;;2.86;94.37;101335.66;5045063;28;20017;-77
2021/12/06 09:48:05;;;;;;;48.53;29.98;;;;;;;2.87;94.63;101338.25;5043417;28;20028;-78
2021/12/06 09:50:37;;;;;;;51.25;30.17;;;;;;;2.90;94.79;101340.81;5046655;28;20037;-77
2021/12/06 09:53:05;;;;;;;65.80;34.42;;;;;;;2.89;94.79;101340.84;5052064;28;20032;-78
2021/12/06 09:55:32;;;;;;;59.15;33.63;;;;;;;2.89;94.98;101339.06;5053662;28;20029;-78
2021/12/06 09:57:58;;;;;;;78.28;35.10;;;;;;;2.88;94.99;101349.72;5046903;28;20041;-77
2021/12/06 10:00:27;;;;;;;75.95;37.75;;;;;;;2.87;95.16;101346.22;5053666;28;20104;-77
2021/12/06 10:02:53;;;;;;;78.03;37.60;;;;;;;2.91;95.28;101341.66;5047496;28;20025;-77
2021/12/06 10:05:20;;;;;;;87.88;39.75;;;;;;;2.90;95.03;101338.16;5044738;28;20365;-77
2021/12/06 10:07:45;;;;;;;78.85;36.70;;;;;;;2.91;94.76;101337.22;5059561;28;20029;-77
2021/12/06 10:10:13;;;;;;;87.80;36.65;;;;;;;2.90;95.04;101329.28;5056618;28;20370;-77
2021/12/06 10:12:39;;;;;;;71.82;37.80;;;;;;;2.89;94.53;101328.44;5048691;28;20025;-77
2021/12/06 10:15:05;;;;;;;70.32;36.55;;;;;;;2.87;94.38;101324.97;5044514;28;20480;-78
2021/12/06 10:17:34;;;;;;;59.72;34.58;;;;;;;2.90;94.91;101324.00;5047206;28;20139;-78
2021/12/06 10:19:59;;;;;;;63.22;31.98;;;;;;;2.92;94.42;101311.53;5057002;28;20093;-78
2021/12/06 10:22:27;;;;;;;70.72;32.03;;;;;;;2.88;94.04;101309.91;5049129;28;20481;-78
2021/12/06 10:24:57;;;;;;;63.38;32.28;;;;;;;2.88;94.21;101307.25;5046942;28;20025;-78
2021/12/06 10:27:24;;;;;;;66.93;31.17;;;;;;;2.86;93.86;101295.84;5047059;28;20372;-77
2021/12/06 10:29:59;;;;;;;55.47;32.30;;;;;;;2.86;94.41;101294.03;5058761;28;20457;-78
2021/12/06 10:32:27;;;;;;;60.30;29.73;;;;;;;2.85;93.96;101294.09;5048866;28;20047;-78
2021/12/06 10:34:59;;;;;;;57.40;31.27;;;;;;;2.88;94.28;101307.25;5043122;28;20041;-78
2021/12/06 10:37:29;;;;;;;63.90;31.80;;;;;;;2.86;93.98;101306.44;5047417;28;20190;-77
2021/12/06 10:39:55;;;;;;;53.33;30.08;;;;;;;2.86;94.41;101302.00;5048051;28;20086;-77
2021/12/06 10:42:33;;;;;;;50.97;27.35;;;;;;;2.88;93.66;101304.59;5047799;28;20124;-77
2021/12/06 10:45:11;;;;;;;54.47;29.83;;;;;;;2.91;94.07;101302.69;5047207;28;20031;-77
2021/12/06 10:47:38;;;;;;;57.00;29.30;;;;;;;2.91;94.20;101288.56;5027798;28;20064;-77
2021/12/06 10:50:10;;;;;;;51.92;28.08;;;;;;;2.91;93.98;101277.94;5038002;28;20025;-77
2021/12/06 10:52:35;;;;;;;46.80;26.55;;;;;;;2.91;94.04;101272.63;5028724;28;20025;-77
2021/12/06 10:55:01;;;;;;;52.72;26.73;;;;;;;2.87;92.79;101263.91;5040604;28;20047;-77
2021/12/06 10:58:06;;;;;;;55.13;30.02;;;;;;;2.88;92.69;101254.16;5043929;28;20048;-77
2021/12/06 11:00:34;;;;;;;42.25;22.98;;;;;;;2.78;92.33;101238.56;5060004;28;20041;-77
2021/12/06 11:03:01;;;;;;;44.13;24.80;;;;;;;2.79;92.84;101242.94;5046591;28;20142;-77
2021/12/06 11:05:30;;;;;;;39.75;23.10;;;;;;;2.74;91.48;101244.88;5040311;28;20032;-77
2021/12/06 11:08:07;;;;;;;41.47;22.60;;;;;;;2.72;91.13;101246.72;5036792;28;20115;-77
2021/12/06 11:10:44;;;;;;;38.40;20.40;;;;;;;2.72;91.45;101252.00;5046216;28;20044;-78
2021/12/06 11:13:12;;;;;;;44.72;22.17;;;;;;;2.71;91.54;101250.31;5044282;28;20032;-78
2021/12/06 11:16:10;;;;;;;45.33;24.45;;;;;;;2.71;91.62;101238.81;5044436;28;20051;-77
2021/12/06 11:18:43;;;;;;;44.70;23.98;;;;;;;2.68;91.33;101234.50;5045406;28;20060;-77
2021/12/06 11:21:45;;;;;;;38.80;21.88;;;;;;;2.71;92.14;101221.09;5041138;28;20104;-77
2021/12/06 11:24:26;;;;;;;40.50;20.95;;;;;;;2.67;91.37;101215.97;5044884;28;20376;-77
2021/12/06 11:26:56;;;;;;;36.63;18.33;;;;;;;2.67;91.15;101198.25;5039091;28;20159;-77